Time;durP1;ratioP1;P1;durP2;ratioP2;P2;SDS_P1;SDS_P2;PMS_P1;PMS_P2;Temp;Humidity;BMP_temperature;BMP_pressure;BME280_temperature;BME280_humidity;BME280_pressure;Samples;Min_cycle;Max_cycle;Signal;HPM_P1;HPM_P2
2021/12/06 00:01:06;;;;;;;;;;;;;;;9.77;77.03;99045.94;5028935;28;19921;-83
2021/12/06 00:03:36;;;;;;;;;;;;;;;9.44;78.48;99037.88;5030479;28;19944;-82
2021/12/06 00:06:01;;;;;;;;;;;;;;;9.38;79.29;99049.41;5029867;28;19921;-82
2021/12/06 00:08:27;;;;;;;;;;;;;;;9.37;78.96;99041.53;5028445;28;19928;-83
2021/12/06 00:10:52;;;;;;;;;;;;;;;9.19;80.24;99040.13;5028850;28;19970;-82
2021/12/06 00:13:23;;;;;;;;;;;;;;;9.30;79.54;99040.81;5028832;28;19917;-83
2021/12/06 00:15:50;;;;;;;;;;;;;;;9.43;79.44;99047.53;5028902;28;19924;-82
2021/12/06 00:18:16;;;;;;;;;;;;;;;9.51;78.80;99044.72;5028914;28;19956;-82
2021/12/06 00:20:41;;;;;;;;;;;;;;;9.52;79.27;99054.38;5028980;28;19916;-83
2021/12/06 00:23:07;;;;;;;;;;;;;;;9.23;80.21;99052.34;5028768;28;19921;-83
2021/12/06 00:25:32;;;;;;;;;;;;;;;9.08;81.23;99042.97;5028952;28;19923;-81
2021/12/06 00:27:57;;;;;;;;;;;;;;;9.11;81.24;99051.69;5028124;28;20307;-82
2021/12/06 00:30:23;;;;;;;;;;;;;;;9.20;80.37;99055.88;5028008;28;20422;-83
2021/12/06 00:32:48;;;;;;;;;;;;;;;9.22;81.02;99058.47;5029010;28;19971;-82
2021/12/06 00:35:19;;;;;;;;;;;;;;;9.12;80.79;99058.66;5028732;28;20007;-83
2021/12/06 00:37:55;;;;;;;;;;;;;;;9.19;80.96;99061.19;5028625;28;20290;-81
2021/12/06 00:40:21;;;;;;;;;;;;;;;9.20;80.78;99057.66;5028429;28;20410;-84
2021/12/06 00:42:47;;;;;;;;;;;;;;;9.02;81.85;99056.25;5027228;28;20318;-82
2021/12/06 00:45:12;;;;;;;;;;;;;;;8.89;82.13;99056.47;5028587;28;19913;-82
2021/12/06 00:47:37;;;;;;;;;;;;;;;8.82;82.33;99061.88;5028470;28;19924;-82
2021/12/06 00:50:05;;;;;;;;;;;;;;;8.58;83.24;99045.63;5028245;28;20446;-82
2021/12/06 00:52:30;;;;;;;;;;;;;;;8.57;84.74;99043.88;5028413;28;19917;-82
2021/12/06 00:54:55;;;;;;;;;;;;;;;8.56;84.61;99040.41;5027648;28;19928;-82
2021/12/06 00:57:21;;;;;;;;;;;;;;;8.85;82.72;99053.91;5027839;28;19917;-82
2021/12/06 00:59:46;;;;;;;;;;;;;;;8.98;82.32;99050.19;5027095;28;20524;-82
2021/12/06 01:02:12;;;;;;;;;;;;;;;9.00;82.12;99053.63;5028450;28;20287;-82
2021/12/06 01:04:40;;;;;;;;;;;;;;;9.07;81.17;99033.34;5027780;28;19975;-83
2021/12/06 01:07:06;;;;;;;;;;;;;;;8.70;82.17;99007.75;4980058;28;1369866;-82
2021/12/06 01:09:31;;;;;;;;;;;;;;;8.48;84.17;99020.38;5027665;28;19951;-81
2021/12/06 01:11:56;;;;;;;;;;;;;;;8.50;84.44;99006.34;5028144;28;20319;-83
2021/12/06 01:14:22;;;;;;;;;;;;;;;8.63;83.56;99003.50;5028919;28;19917;-82
2021/12/06 01:16:47;;;;;;;;;;;;;;;8.50;83.98;99000.22;5027588;28;19913;-83
2021/12/06 01:19:13;;;;;;;;;;;;;;;8.67;82.83;99013.91;5028987;28;19917;-82
2021/12/06 01:24:11;;;;;;;;;;;;;;;8.98;81.48;99009.88;5028551;28;20394;-83
2021/12/06 01:39:10;;;;;;;;;;;;;;;8.89;80.83;99000.38;5014699;28;19921;-82
2021/12/06 01:39:58;;;;;;;;;;;;;;;8.83;81.99;99008.38;5005729;28;20662;-83
2021/12/06 01:42:23;;;;;;;;;;;;;;;8.99;80.39;98999.31;5005370;28;19917;-83
2021/12/06 01:44:54;;;;;;;;;;;;;;;8.81;80.71;98995.25;5016017;28;20003;-82
2021/12/06 01:47:29;;;;;;;;;;;;;;;8.69;81.67;98990.22;5028396;28;20405;-82
2021/12/06 01:49:56;;;;;;;;;;;;;;;8.53;81.69;98998.41;5028281;28;19920;-82
2021/12/06 01:52:23;;;;;;;;;;;;;;;8.62;81.53;99002.63;5028046;28;19921;-83
2021/12/06 01:54:49;;;;;;;;;;;;;;;8.72;80.63;98990.16;5026617;28;20011;-83
2021/12/06 01:57:15;;;;;;;;;;;;;;;8.59;80.64;98985.13;5028117;28;20031;-81
2021/12/06 01:59:40;;;;;;;;;;;;;;;8.51;81.40;98978.28;5027526;28;20627;-81
2021/12/06 02:02:06;;;;;;;;;;;;;;;8.41;81.49;98990.69;5028038;28;20012;-83
2021/12/06 02:04:32;;;;;;;;;;;;;;;8.14;82.77;98986.75;5027867;28;19917;-83
2021/12/06 02:06:58;;;;;;;;;;;;;;;8.36;82.20;98982.88;5027906;28;19928;-82
2021/12/06 02:09:26;;;;;;;;;;;;;;;8.19;82.36;98964.78;5028201;28;19917;-81
2021/12/06 02:11:52;;;;;;;;;;;;;;;8.32;82.75;98980.34;5026448;28;19921;-82
2021/12/06 02:17:11;;;;;;;;;;;;;;;8.13;83.60;98964.88;5026856;28;19967;-83
2021/12/06 02:19:39;;;;;;;;;;;;;;;8.01;84.36;98959.84;5027408;28;19942;-82
2021/12/06 02:22:06;;;;;;;;;;;;;;;8.20;83.84;98961.28;5026982;28;20620;-84
2021/12/06 02:24:32;;;;;;;;;;;;;;;8.15;83.64;98963.09;5027686;28;19970;-81
2021/12/06 02:26:58;;;;;;;;;;;;;;;8.13;84.22;98972.78;5026121;28;19921;-82
2021/12/06 02:29:24;;;;;;;;;;;;;;;8.37;83.30;98968.88;5028356;28;19917;-84
2021/12/06 02:31:49;;;;;;;;;;;;;;;8.50;82.42;98968.69;5027390;28;20366;-82
2021/12/06 02:34:14;;;;;;;;;;;;;;;8.59;82.07;98968.50;5023721;28;19921;-83
2021/12/06 02:36:40;;;;;;;;;;;;;;;8.80;80.84;98969.84;5027334;28;19924;-83
2021/12/06 02:39:09;;;;;;;;;;;;;;;8.52;81.74;98978.25;5027918;28;19932;-83
2021/12/06 02:41:34;;;;;;;;;;;;;;;8.60;81.68;98971.09;5026911;28;20002;-81
2021/12/06 02:43:59;;;;;;;;;;;;;;;8.28;82.95;98962.88;5027342;28;19921;-83
2021/12/06 02:46:25;;;;;;;;;;;;;;;8.26;83.02;98955.03;5027505;28;19967;-83
2021/12/06 02:48:51;;;;;;;;;;;;;;;8.21;83.36;98954.25;5026414;28;19917;-82
2021/12/06 02:51:16;;;;;;;;;;;;;;;8.39;83.15;98956.56;5026673;28;19921;-82
2021/12/06 02:53:42;;;;;;;;;;;;;;;8.75;81.37;98969.94;5027359;28;20283;-82
2021/12/06 02:56:28;;;;;;;;;;;;;;;8.78;80.56;98971.66;5026361;28;19924;-82
2021/12/06 02:58:56;;;;;;;;;;;;;;;8.80;80.90;98963.72;5023482;28;19972;-83
2021/12/06 03:01:25;;;;;;;;;;;;;;;8.89;80.48;98950.41;5022539;28;19921;-81
2021/12/06 03:03:51;;;;;;;;;;;;;;;8.66;80.98;98961.38;5027373;28;20294;-81
2021/12/06 03:06:16;;;;;;;;;;;;;;;8.94;79.94;98951.16;5027086;28;19917;-81
2021/12/06 03:08:46;;;;;;;;;;;;;;;8.91;79.88;98956.47;5026693;28;20303;-81
2021/12/06 03:11:13;;;;;;;;;;;;;;;8.93;79.91;98947.69;5027163;28;19948;-83
2021/12/06 03:13:39;;;;;;;;;;;;;;;8.84;79.86;98965.41;5026903;28;19917;-81
2021/12/06 03:16:05;;;;;;;;;;;;;;;8.93;79.51;98947.69;5027570;28;19917;-81
2021/12/06 03:18:30;;;;;;;;;;;;;;;8.93;79.60;98960.81;5027238;28;19917;-81
2021/12/06 03:20:56;;;;;;;;;;;;;;;8.97;79.15;98966.88;5026733;28;19955;-83
2021/12/06 03:23:21;;;;;;;;;;;;;;;8.93;79.57;98962.59;5025708;28;20395;-81
2021/12/06 03:25:46;;;;;;;;;;;;;;;8.94;79.20;98961.69;5026992;28;19917;-82
2021/12/06 03:28:12;;;;;;;;;;;;;;;8.91;79.08;98954.75;5025502;28;19917;-82
2021/12/06 03:30:38;;;;;;;;;;;;;;;8.87;79.48;98960.09;5012739;28;19925;-82
2021/12/06 03:33:03;;;;;;;;;;;;;;;8.82;78.90;98957.56;5026539;28;19921;-82
2021/12/06 03:35:28;;;;;;;;;;;;;;;8.93;78.59;98950.31;5026649;28;20124;-86
2021/12/06 03:37:54;;;;;;;;;;;;;;;8.92;77.98;98945.06;5026748;28;20071;-82
2021/12/06 03:40:19;;;;;;;;;;;;;;;8.87;77.46;98962.72;5027188;28;19921;-82
2021/12/06 03:42:44;;;;;;;;;;;;;;;8.70;77.04;98969.16;5027064;28;20449;-81
2021/12/06 03:45:11;;;;;;;;;;;;;;;8.45;77.17;98957.34;5025121;28;19920;-81
2021/12/06 03:47:36;;;;;;;;;;;;;;;8.76;76.28;98945.38;5026257;28;19978;-82
2021/12/06 03:50:04;;;;;;;;;;;;;;;8.84;75.64;98973.31;5029331;28;19916;-82
2021/12/06 03:52:30;;;;;;;;;;;;;;;8.87;74.78;98967.97;5019818;28;19974;-84
2021/12/06 03:54:55;;;;;;;;;;;;;;;8.79;74.81;98949.72;5030188;28;20031;-83
2021/12/06 03:57:21;;;;;;;;;;;;;;;8.79;74.26;98954.97;5028750;28;20034;-82
2021/12/06 03:59:47;;;;;;;;;;;;;;;8.78;74.21;98969.03;5029700;28;19917;-82
2021/12/06 04:02:13;;;;;;;;;;;;;;;8.71;74.27;98965.66;5029766;28;19924;-83
2021/12/06 04:04:38;;;;;;;;;;;;;;;8.77;74.19;98983.94;5024863;28;19920;-84
2021/12/06 04:07:04;;;;;;;;;;;;;;;8.89;73.64;98976.69;5029660;28;19923;-82
2021/12/06 04:09:29;;;;;;;;;;;;;;;8.99;72.66;98964.22;5029244;28;19971;-83
2021/12/06 04:11:55;;;;;;;;;;;;;;;8.98;72.74;98966.00;5030013;28;19917;-82
2021/12/06 04:14:20;;;;;;;;;;;;;;;9.03;72.25;98966.75;5028833;28;19921;-83
2021/12/06 04:16:46;;;;;;;;;;;;;;;9.15;71.52;98952.50;5029054;28;19928;-82
2021/12/06 04:19:12;;;;;;;;;;;;;;;9.01;72.05;98951.94;5028852;28;19928;-83
2021/12/06 04:21:39;;;;;;;;;;;;;;;8.93;71.24;98947.69;5030143;28;19927;-82
2021/12/06 04:24:04;;;;;;;;;;;;;;;9.02;71.57;98944.00;5028814;28;19921;-83
2021/12/06 04:26:30;;;;;;;;;;;;;;;9.03;71.47;98936.97;5029045;28;19924;-83
2021/12/06 04:29:01;;;;;;;;;;;;;;;8.84;71.19;98939.97;5028933;28;20421;-83
2021/12/06 04:31:32;;;;;;;;;;;;;;;8.94;71.20;98956.41;5029553;28;19924;-83
2021/12/06 04:33:58;;;;;;;;;;;;;;;8.95;71.89;98969.53;5028443;28;19921;-84
2021/12/06 04:36:24;;;;;;;;;;;;;;;8.76;71.82;98966.41;5029149;28;19917;-83
2021/12/06 04:38:49;;;;;;;;;;;;;;;8.83;72.95;98961.03;5028815;28;20033;-83
2021/12/06 04:41:15;;;;;;;;;;;;;;;9.00;72.42;98969.44;5029305;28;20624;-82
2021/12/06 04:43:40;;;;;;;;;;;;;;;9.07;71.83;98951.81;5028763;28;20233;-85
2021/12/06 04:46:06;;;;;;;;;;;;;;;9.09;71.39;98936.84;5029289;28;19921;-83
2021/12/06 04:48:31;;;;;;;;;;;;;;;9.06;71.47;98936.91;5028930;28;19921;-83
2021/12/06 04:50:56;;;;;;;;;;;;;;;9.04;72.07;98946.59;5029710;28;19928;-82
2021/12/06 04:53:24;;;;;;;;;;;;;;;9.09;71.33;98948.22;5029316;28;19916;-82
2021/12/06 04:55:52;;;;;;;;;;;;;;;9.15;71.89;98952.50;5029173;28;19971;-83
2021/12/06 04:58:19;;;;;;;;;;;;;;;9.18;71.95;98954.22;5029154;28;19944;-82
2021/12/06 05:00:51;;;;;;;;;;;;;;;9.07;72.40;98962.31;5026892;28;20011;-82
2021/12/06 05:03:17;;;;;;;;;;;;;;;9.04;72.22;98967.66;5011746;28;20008;-82
2021/12/06 05:05:47;;;;;;;;;;;;;;;9.14;72.39;98970.06;5027923;28;20027;-82
2021/12/06 05:08:18;;;;;;;;;;;;;;;9.03;72.02;98971.16;5028563;28;19924;-81
2021/12/06 05:10:44;;;;;;;;;;;;;;;8.99;72.67;98978.25;5028446;28;19948;-82
2021/12/06 05:13:09;;;;;;;;;;;;;;;8.78;73.62;98961.97;5028166;28;19998;-82
2021/12/06 05:15:35;;;;;;;;;;;;;;;9.08;72.06;98946.50;5027228;28;20059;-81
2021/12/06 05:18:00;;;;;;;;;;;;;;;8.89;72.75;98942.50;5013736;28;19928;-83
2021/12/06 05:20:26;;;;;;;;;;;;;;;8.75;73.54;98956.78;5022477;28;19924;-84
2021/12/06 05:22:51;;;;;;;;;;;;;;;8.38;75.75;98973.19;5029010;28;19924;-83
2021/12/06 05:25:16;;;;;;;;;;;;;;;8.75;74.30;98969.06;5027017;28;20346;-83
2021/12/06 05:27:42;;;;;;;;;;;;;;;8.85;73.29;98960.13;5028222;28;19940;-82
2021/12/06 05:30:09;;;;;;;;;;;;;;;8.69;74.64;98970.06;5027632;28;20007;-83
2021/12/06 05:32:36;;;;;;;;;;;;;;;8.90;74.02;98967.94;5028649;28;19951;-84
2021/12/06 05:35:07;;;;;;;;;;;;;;;8.99;73.13;98967.75;5028022;28;19921;-83
2021/12/06 05:37:34;;;;;;;;;;;;;;;9.01;72.67;98962.44;5027282;28;20334;-84
2021/12/06 05:39:59;;;;;;;;;;;;;;;9.00;73.19;98968.59;5028007;28;20062;-82
2021/12/06 05:42:26;;;;;;;;;;;;;;;9.11;71.57;98978.00;5024397;28;20008;-82
2021/12/06 05:44:51;;;;;;;;;;;;;;;8.81;72.25;98976.00;5026555;28;19921;-82
2021/12/06 05:47:17;;;;;;;;;;;;;;;8.83;71.57;98980.31;5028291;28;19970;-85
2021/12/06 05:49:42;;;;;;;;;;;;;;;8.84;71.75;98976.78;5027908;28;19928;-83
2021/12/06 05:52:08;;;;;;;;;;;;;;;8.76;71.23;98978.72;5009390;28;19917;-85
2021/12/06 05:54:34;;;;;;;;;;;;;;;8.77;72.30;98983.06;5017356;28;19927;-86
2021/12/06 05:56:59;;;;;;;;;;;;;;;8.92;71.79;98974.00;5027944;28;19978;-84
2021/12/06 05:59:25;;;;;;;;;;;;;;;8.94;70.83;98969.56;5027962;28;19948;-84
2021/12/06 06:01:53;;;;;;;;;;;;;;;9.04;70.79;98965.00;5018860;28;19928;-84
2021/12/06 06:04:19;;;;;;;;;;;;;;;9.07;71.17;98971.06;5027830;28;19920;-85
2021/12/06 06:06:44;;;;;;;;;;;;;;;9.16;71.20;98979.66;5028047;28;19983;-86
2021/12/06 06:09:09;;;;;;;;;;;;;;;9.08;70.89;98988.59;5024005;28;19924;-87
2021/12/06 06:11:35;;;;;;;;;;;;;;;9.16;71.20;98984.94;5026941;28;19917;-85
2021/12/06 06:14:02;;;;;;;;;;;;;;;9.07;71.47;98980.75;5027623;28;19921;-85
2021/12/06 06:16:31;;;;;;;;;;;;;;;9.24;70.89;99004.06;5026827;28;20050;-87
2021/12/06 06:18:57;;;;;;;;;;;;;;;9.39;71.16;98982.69;5027092;28;19943;-87
2021/12/06 06:21:22;;;;;;;;;;;;;;;9.54;73.46;98986.75;5028126;28;20446;-86
2021/12/06 06:23:48;;;;;;;;;;;;;;;9.77;72.39;98988.84;5017707;28;20375;-87
2021/12/06 06:26:13;;;;;;;;;;;;;;;9.94;71.52;98987.63;5007872;28;19924;-87
2021/12/06 06:28:38;;;;;;;;;;;;;;;10.00;71.14;98983.06;5022057;28;19924;-86
2021/12/06 06:31:04;;;;;;;;;;;;;;;10.05;70.18;98993.47;5023280;28;19909;-87
2021/12/06 06:33:29;;;;;;;;;;;;;;;9.99;70.44;98999.78;5024815;28;20008;-86
2021/12/06 06:35:55;;;;;;;;;;;;;;;10.10;70.24;98998.63;5024943;28;19963;-86
2021/12/06 06:38:22;;;;;;;;;;;;;;;10.10;70.25;98999.53;5024902;28;19970;-86
2021/12/06 06:40:48;;;;;;;;;;;;;;;10.12;69.40;99007.41;5026437;28;19921;-85
2021/12/06 06:43:13;;;;;;;;;;;;;;;9.95;70.77;99015.69;5023299;28;20429;-88
2021/12/06 06:45:39;;;;;;;;;;;;;;;9.95;70.32;99011.28;5021467;28;19925;-86
2021/12/06 06:48:04;;;;;;;;;;;;;;;10.01;70.89;99003.25;5007439;28;19917;-84
2021/12/06 06:50:30;;;;;;;;;;;;;;;10.08;71.10;98998.69;5007922;28;19913;-84
2021/12/06 06:52:55;;;;;;;;;;;;;;;10.14;69.93;99000.31;5011475;28;19928;-84
2021/12/06 06:55:21;;;;;;;;;;;;;;;10.10;70.57;99017.97;5026664;28;19952;-86
2021/12/06 06:57:46;;;;;;;;;;;;;;;9.94;71.24;99012.19;5026157;28;20315;-85
2021/12/06 07:00:16;;;;;;;;;;;;;;;9.86;72.25;99000.97;5025915;28;19986;-86
2021/12/06 07:02:42;;;;;;;;;;;;;;;9.75;72.25;98995.94;5026329;28;19924;-86
2021/12/06 07:05:08;;;;;;;;;;;;;;;9.88;72.13;98987.75;5027292;28;19913;-85
2021/12/06 07:07:33;;;;;;;;;;;;;;;9.75;72.66;98987.19;5026125;28;19960;-84
2021/12/06 07:09:59;;;;;;;;;;;;;;;9.70;72.72;98989.03;5026196;28;19920;-84
2021/12/06 07:12:24;;;;;;;;;;;;;;;9.60;73.20;98988.38;5026669;28;20075;-84
2021/12/06 07:14:50;;;;;;;;;;;;;;;9.57;74.23;98988.44;5026886;28;20406;-84
2021/12/06 07:17:16;;;;;;;;;;;;;;;9.76;73.73;98989.78;5027061;28;20412;-87
2021/12/06 07:19:41;;;;;;;;;;;;;;;9.85;73.17;98986.94;5027350;28;19917;-84
2021/12/06 07:22:07;;;;;;;;;;;;;;;9.84;73.65;98971.16;5026994;28;19917;-83
2021/12/06 07:24:32;;;;;;;;;;;;;;;9.86;73.77;98966.72;5028607;28;20363;-85
2021/12/06 07:26:58;;;;;;;;;;;;;;;9.99;73.82;98964.66;5030723;28;19917;-85
2021/12/06 07:29:24;;;;;;;;;;;;;;;10.19;73.11;98959.78;5031029;28;19924;-84
2021/12/06 07:31:49;;;;;;;;;;;;;;;10.16;73.98;98954.56;5031551;28;19913;-85
2021/12/06 07:34:15;;;;;;;;;;;;;;;10.33;72.90;98954.19;5031024;28;19916;-86
2021/12/06 07:36:40;;;;;;;;;;;;;;;10.10;74.57;98948.56;5031245;28;20296;-85
2021/12/06 07:39:06;;;;;;;;;;;;;;;10.10;74.78;98978.44;5030997;28;20318;-84
2021/12/06 07:41:31;;;;;;;;;;;;;;;10.14;73.72;98974.81;5030397;28;20897;-85
2021/12/06 07:43:57;;;;;;;;;;;;;;;10.32;73.27;98967.38;5030923;28;19916;-85
2021/12/06 07:46:23;;;;;;;;;;;;;;;10.40;73.86;98962.78;5030865;28;20010;-84
2021/12/06 07:48:52;;;;;;;;;;;;;;;10.68;72.41;98968.19;5030044;28;20410;-85
2021/12/06 07:51:18;;;;;;;;;;;;;;;10.50;73.05;98969.56;5030654;28;19921;-85
2021/12/06 07:53:43;;;;;;;;;;;;;;;10.34;73.54;98973.50;5029399;28;20295;-85
2021/12/06 07:56:09;;;;;;;;;;;;;;;10.47;73.55;98958.22;5028902;28;19917;-82
2021/12/06 07:58:34;;;;;;;;;;;;;;;10.10;74.06;98957.38;5029201;28;19917;-87
2021/12/06 08:00:59;;;;;;;;;;;;;;;10.15;73.91;98968.66;5030472;28;20379;-84
2021/12/06 08:03:26;;;;;;;;;;;;;;;10.25;74.43;98971.06;5030241;28;19921;-86
2021/12/06 08:05:52;;;;;;;;;;;;;;;10.44;73.89;98969.72;5030174;28;19919;-83
2021/12/06 08:08:22;;;;;;;;;;;;;;;10.30;72.71;98953.34;5029914;28;19931;-85
2021/12/06 08:10:48;;;;;;;;;;;;;;;10.51;72.32;98960.72;5030155;28;19917;-83
2021/12/06 08:13:15;;;;;;;;;;;;;;;10.51;72.57;98955.44;5030182;28;20394;-83
2021/12/06 08:15:41;;;;;;;;;;;;;;;10.65;72.17;98956.88;5030185;28;20718;-83
2021/12/06 08:18:06;;;;;;;;;;;;;;;10.62;73.10;98949.03;5029939;28;19975;-84
2021/12/06 08:20:33;;;;;;;;;;;;;;;10.41;74.02;98950.47;5030479;28;19909;-85
2021/12/06 08:22:58;;;;;;;;;;;;;;;10.82;73.17;98954.63;5031338;28;19991;-87
2021/12/06 08:25:23;;;;;;;;;;;;;;;10.63;72.29;98956.00;5029744;28;20414;-85
2021/12/06 08:27:49;;;;;;;;;;;;;;;10.60;73.39;98949.06;5030176;28;20016;-84
2021/12/06 08:30:16;;;;;;;;;;;;;;;11.15;71.87;98956.34;5029885;28;19940;-85
2021/12/06 08:32:42;;;;;;;;;;;;;;;11.22;70.41;98955.25;5029185;28;19971;-85
2021/12/06 08:35:07;;;;;;;;;;;;;;;11.23;69.93;98944.66;5029481;28;19925;-84
2021/12/06 08:37:32;;;;;;;;;;;;;;;11.49;69.16;98940.34;5029906;28;19924;-83
2021/12/06 08:39:58;;;;;;;;;;;;;;;11.29;70.12;98935.66;5029118;28;19921;-84
2021/12/06 08:42:23;;;;;;;;;;;;;;;11.06;71.11;98950.44;5029505;28;19939;-83
2021/12/06 08:44:49;;;;;;;;;;;;;;;11.33;70.60;98953.16;5029015;28;20290;-88
2021/12/06 08:47:15;;;;;;;;;;;;;;;11.47;69.86;98952.75;5029400;28;19913;-84
2021/12/06 08:49:41;;;;;;;;;;;;;;;11.61;69.44;98945.25;5029626;28;19917;-83
2021/12/06 08:52:06;;;;;;;;;;;;;;;11.62;69.32;98952.28;5029437;28;19916;-82
2021/12/06 08:54:31;;;;;;;;;;;;;;;11.62;69.43;98946.13;5028736;28;19939;-83
2021/12/06 08:56:58;;;;;;;;;;;;;;;11.12;70.40;98936.16;5029416;28;19921;-85
2021/12/06 08:59:24;;;;;;;;;;;;;;;11.26;70.55;98930.47;5029265;28;19919;-84
2021/12/06 09:01:49;;;;;;;;;;;;;;;11.16;70.58;98937.81;5029565;28;20015;-85
2021/12/06 09:04:15;;;;;;;;;;;;;;;11.25;69.99;98936.69;5026657;28;20039;-84
2021/12/06 09:06:43;;;;;;;;;;;;;;;11.11;70.11;98926.53;5029157;28;19928;-84
2021/12/06 09:09:09;;;;;;;;;;;;;;;11.26;70.78;98912.00;5029535;28;19917;-84
2021/12/06 09:11:38;;;;;;;;;;;;;;;11.48;70.24;98920.16;5028851;28;19913;-85
2021/12/06 09:14:04;;;;;;;;;;;;;;;11.32;70.14;98919.72;5029043;28;19917;-84
2021/12/06 09:16:29;;;;;;;;;;;;;;;11.35;69.81;98909.06;5029304;28;19923;-84
2021/12/06 09:18:55;;;;;;;;;;;;;;;10.63;73.04;98912.06;5028638;28;19913;-85
2021/12/06 09:21:21;;;;;;;;;;;;;;;10.80;73.32;98937.97;5027790;28;19917;-85
2021/12/06 09:23:47;;;;;;;;;;;;;;;11.25;71.63;98911.16;5029049;28;19970;-84
2021/12/06 09:26:12;;;;;;;;;;;;;;;11.00;71.91;98918.94;5028333;28;19921;-87
2021/12/06 09:28:38;;;;;;;;;;;;;;;11.26;71.30;98928.72;5028582;28;19917;-87
2021/12/06 09:31:05;;;;;;;;;;;;;;;11.56;70.70;98893.50;5028866;28;19917;-85
2021/12/06 09:33:32;;;;;;;;;;;;;;;11.51;69.81;98896.28;5028505;28;19939;-88
2021/12/06 09:35:59;;;;;;;;;;;;;;;11.46;71.00;98877.94;5028281;28;19916;-87
2021/12/06 09:38:33;;;;;;;;;;;;;;;11.46;70.82;98892.91;5028064;28;19923;-84
2021/12/06 09:40:58;;;;;;;;;;;;;;;11.44;71.58;98894.75;5026904;28;20303;-84
2021/12/06 09:43:24;;;;;;;;;;;;;;;11.94;70.57;98892.28;5027886;28;19924;-84
2021/12/06 09:45:50;;;;;;;;;;;;;;;12.17;69.85;98872.13;5028174;28;19960;-84
2021/12/06 09:48:16;;;;;;;;;;;;;;;12.43;67.36;98891.50;5027001;28;19963;-84
2021/12/06 09:50:43;;;;;;;;;;;;;;;12.21;67.78;98871.09;5026330;28;20359;-83
2021/12/06 09:53:10;;;;;;;;;;;;;;;11.74;68.63;98858.56;5028270;28;19916;-82
2021/12/06 09:55:36;;;;;;;;;;;;;;;12.32;67.59;98857.50;5027360;28;19917;-86
2021/12/06 09:58:02;;;;;;;;;;;;;;;12.37;67.41;98858.19;5027500;28;19940;-83
2021/12/06 10:00:29;;;;;;;;;;;;;;;12.36;68.08;98849.41;5027709;28;19956;-84
2021/12/06 10:02:55;;;;;;;;;;;;;;;11.80;69.59;98826.66;5027332;28;19913;-84
2021/12/06 10:05:26;;;;;;;;;;;;;;;11.92;69.21;98835.94;5027305;28;20012;-85
2021/12/06 10:07:51;;;;;;;;;;;;;;;11.87;69.51;98840.50;5027615;28;20421;-83
2021/12/06 10:10:17;;;;;;;;;;;;;;;12.06;69.31;98835.47;5026926;28;19929;-89
2021/12/06 10:12:43;;;;;;;;;;;;;;;12.34;68.91;98797.47;5027404;28;19966;-84
2021/12/06 10:15:08;;;;;;;;;;;;;;;11.97;68.58;98826.09;5026230;28;19913;-85
2021/12/06 10:17:34;;;;;;;;;;;;;;;11.61;70.16;98802.59;5027210;28;19939;-86
2021/12/06 10:19:59;;;;;;;;;;;;;;;11.90;70.05;98800.75;5026242;28;20362;-85
2021/12/06 10:22:27;;;;;;;;;;;;;;;12.03;69.85;98808.28;5022662;28;19926;-86
2021/12/06 10:24:54;;;;;;;;;;;;;;;12.38;68.16;98807.03;5026289;28;19928;-84
2021/12/06 10:27:20;;;;;;;;;;;;;;;11.73;70.21;98797.84;5025563;28;19917;-83
2021/12/06 10:29:52;;;;;;;;;;;;;;;12.11;69.60;98806.22;5025980;28;19921;-84
2021/12/06 10:32:24;;;;;;;;;;;;;;;12.12;69.23;98798.25;5025772;28;19920;-84
2021/12/06 10:34:51;;;;;;;;;;;;;;;12.39;68.64;98792.91;5027587;28;20023;-84
2021/12/06 10:37:34;;;;;;;;;;;;;;;12.05;69.98;98801.16;5025822;28;20296;-84
2021/12/06 10:40:00;;;;;;;;;;;;;;;12.25;69.18;98769.63;5027092;28;19913;-82
2021/12/06 10:42:26;;;;;;;;;;;;;;;12.39;69.16;98795.56;5025346;28;19920;-84
2021/12/06 10:44:52;;;;;;;;;;;;;;;12.40;69.15;98801.69;5026761;28;19964;-83
2021/12/06 10:47:17;;;;;;;;;;;;;;;12.38;68.68;98804.38;5026481;28;19965;-87
2021/12/06 10:49:46;;;;;;;;;;;;;;;12.29;69.54;98794.16;5027453;28;19952;-84
2021/12/06 10:52:11;;;;;;;;;;;;;;;12.51;68.03;98788.91;5026816;28;19952;-84
2021/12/06 10:54:39;;;;;;;;;;;;;;;12.60;67.17;98783.28;5026449;28;19987;-83
2021/12/06 10:57:08;;;;;;;;;;;;;;;12.09;69.22;98779.00;5026927;28;19967;-84
2021/12/06 10:59:37;;;;;;;;;;;;;;;11.85;70.30;98778.94;5030626;28;19943;-86
2021/12/06 11:02:04;;;;;;;;;;;;;;;11.73;71.09;98772.28;5030866;28;19917;-84
2021/12/06 11:04:31;;;;;;;;;;;;;;;12.31;70.04;98768.50;5030292;28;20007;-83
2021/12/06 11:07:04;;;;;;;;;;;;;;;12.12;70.12;98752.47;5030924;28;19966;-86
2021/12/06 11:09:31;;;;;;;;;;;;;;;12.17;70.02;98759.31;5031617;28;20302;-85
2021/12/06 11:11:59;;;;;;;;;;;;;;;12.33;68.84;98764.88;5029107;28;19951;-84
2021/12/06 11:14:30;;;;;;;;;;;;;;;12.25;69.62;98752.84;5029782;28;20000;-84
2021/12/06 11:17:06;;;;;;;;;;;;;;;12.15;69.95;98749.69;5030809;28;19913;-83
2021/12/06 11:19:32;;;;;;;;;;;;;;;11.91;71.63;98743.47;5030747;28;19921;-85
2021/12/06 11:22:00;;;;;;;;;;;;;;;11.72;72.33;98736.19;5030968;28;19987;-84
2021/12/06 11:24:28;;;;;;;;;;;;;;;11.64;72.21;98727.69;5030062;28;19923;-84
2021/12/06 11:27:08;;;;;;;;;;;;;;;11.88;71.44;98735.66;5030471;28;20375;-83
2021/12/06 11:29:57;;;;;;;;;;;;;;;11.96;71.64;98744.22;5030378;28;20387;-84
2021/12/06 11:32:24;;;;;;;;;;;;;;;12.12;71.05;98739.25;5019820;28;19964;-87
2021/12/06 11:34:49;;;;;;;;;;;;;;;12.22;70.75;98724.78;5029418;28;20287;-84
2021/12/06 11:37:23;;;;;;;;;;;;;;;12.34;70.44;98740.19;5030967;28;19967;-85
2021/12/06 11:39:50;;;;;;;;;;;;;;;12.35;69.80;98710.16;5029926;28;20016;-85
2021/12/06 11:42:16;;;;;;;;;;;;;;;12.64;68.80;98696.75;5029370;28;20944;-87
2021/12/06 11:44:43;;;;;;;;;;;;;;;12.69;67.88;98708.84;5030324;28;19917;-84
2021/12/06 11:47:13;;;;;;;;;;;;;;;12.50;68.67;98682.25;5029502;28;19913;-85
2021/12/06 11:49:47;;;;;;;;;;;;;;;12.50;69.02;98671.69;5030198;28;19940;-85
2021/12/06 11:52:16;;;;;;;;;;;;;;;12.43;68.80;98686.06;5030270;28;19912;-84
2021/12/06 11:55:01;;;;;;;;;;;;;;;12.26;69.96;98693.78;5029759;28;19913;-85
2021/12/06 11:57:29;;;;;;;;;;;;;;;12.27;69.85;98685.78;5028813;28;19920;-86
2021/12/06 11:59:57;;;;;;;;;;;;;;;12.42;69.97;98686.13;5030348;28;19917;-85
2021/12/06 12:02:35;;;;;;;;;;;;;;;12.65;69.43;98679.94;5029714;28;19948;-86
2021/12/06 12:05:30;;;;;;;;;;;;;;;12.60;68.49;98692.50;5030378;28;19963;-86
2021/12/06 12:08:01;;;;;;;;;;;;;;;12.28;69.64;98676.94;5023955;28;20379;-88
2021/12/06 12:10:29;;;;;;;;;;;;;;;12.25;70.44;98682.34;5029587;28;19917;-85
2021/12/06 12:12:55;;;;;;;;;;;;;;;12.17;70.45;98657.97;5030699;28;19920;-93
2021/12/06 12:15:21;;;;;;;;;;;;;;;12.26;69.78;98668.19;5029610;28;19913;-84
2021/12/06 12:17:49;;;;;;;;;;;;;;;12.40;68.97;98666.81;5029800;28;20011;-85
2021/12/06 12:20:14;;;;;;;;;;;;;;;12.22;69.64;98663.09;5029593;28;19912;-84
2021/12/06 12:22:41;;;;;;;;;;;;;;;11.78;71.36;98654.06;5029170;28;19936;-87
2021/12/06 12:25:11;;;;;;;;;;;;;;;11.96;71.38;98670.22;5029162;28;20366;-85
2021/12/06 12:27:53;;;;;;;;;;;;;;;12.31;70.14;98660.97;5028829;28;19921;-85
2021/12/06 12:30:18;;;;;;;;;;;;;;;12.44;69.35;98655.19;5029306;28;19924;-85
2021/12/06 12:32:43;;;;;;;;;;;;;;;12.46;69.38;98637.47;5029235;28;19913;-84
2021/12/06 12:35:11;;;;;;;;;;;;;;;12.44;69.26;98634.03;5029460;28;19917;-85
2021/12/06 12:37:38;;;;;;;;;;;;;;;12.50;69.20;98639.09;5029099;28;19917;-84
2021/12/06 12:40:03;;;;;;;;;;;;;;;12.40;70.25;98649.16;5029653;28;20004;-85
2021/12/06 12:42:29;;;;;;;;;;;;;;;12.39;69.82;98638.63;5028626;28;20007;-85
2021/12/06 12:44:56;;;;;;;;;;;;;;;12.54;69.15;98638.91;5028121;28;19913;-85
2021/12/06 12:47:23;;;;;;;;;;;;;;;12.35;70.11;98632.59;5028836;28;19917;-85
2021/12/06 12:49:51;;;;;;;;;;;;;;;12.26;70.24;98612.66;5028191;28;19936;-85
2021/12/06 12:52:33;;;;;;;;;;;;;;;12.50;69.37;98620.56;5028673;28;20422;-86
2021/12/06 12:54:58;;;;;;;;;;;;;;;12.66;69.31;98626.09;5029024;28;19913;-84
2021/12/06 12:57:34;;;;;;;;;;;;;;;12.66;69.02;98618.16;5029480;28;19924;-84
2021/12/06 13:00:02;;;;;;;;;;;;;;;12.53;68.54;98592.22;5029238;28;20303;-85
2021/12/06 13:02:33;;;;;;;;;;;;;;;12.80;68.06;98623.75;5029543;28;19920;-84
2021/12/06 13:04:58;;;;;;;;;;;;;;;12.81;68.15;98625.47;5029597;28;20418;-86
2021/12/06 13:07:30;;;;;;;;;;;;;;;12.83;68.58;98630.72;5029118;28;19920;-84